Terminal Aerodrome Forecast
Issued by NWS

Home | Current Version | Previous Version | Text Only | Print | Product List | Glossary Off
Versions: 1 2 3 4 5 6 7 8 9 10 11 12 13 14

000
FTUS42 KMHX 250522
TAFOAJ
TAF
KOAJ 250522Z 2506/2606 00000KT P6SM SCT100 OVC250
     FM251200 13004KT P6SM BKN100
     FM252000 22006KT 5SM -RA BR SCT007 OVC020
     FM260000 19005KT 3SM -RA BR BKN007 OVC015
     FM260300 VRB03KT P6SM VCSH OVC005
      AMD LTD TO CLD VIS AND WIND=

USA.gov is the U.S. government's official web portal to all federal, state and local government web resources and services.